createdAt,value
2023-04-21T00:01:56.086Z,11.30
2023-04-21T00:04:25.607Z,10.97
2023-04-21T00:06:54.487Z,11.00
2023-04-21T00:09:22.325Z,11.60
2023-04-21T00:11:50.191Z,14.37
2023-04-21T00:14:17.977Z,13.07
2023-04-21T00:16:45.777Z,13.43
2023-04-21T00:19:14.132Z,11.90
2023-04-21T00:21:43.268Z,13.37
2023-04-21T00:24:11.061Z,13.10
2023-04-21T00:26:38.820Z,11.83
2023-04-21T00:29:06.594Z,11.47
2023-04-21T00:31:34.374Z,11.80
2023-04-21T00:34:02.172Z,11.00
2023-04-21T00:36:29.911Z,11.63
2023-04-21T00:38:58.988Z,11.63
2023-04-21T00:41:28.850Z,10.80
2023-04-21T00:44:04.482Z,11.03
2023-04-21T00:46:32.638Z,11.37
2023-04-21T00:49:01.056Z,11.97
2023-04-21T00:51:29.696Z,11.90
2023-04-21T00:53:59.051Z,12.93
2023-04-21T00:56:27.322Z,12.53
2023-04-21T00:58:55.796Z,12.23
2023-04-21T01:01:24.286Z,12.57
2023-04-21T01:03:52.931Z,11.57
2023-04-21T01:06:21.055Z,13.13
2023-04-21T01:08:49.783Z,12.80
2023-04-21T01:11:18.911Z,12.17
2023-04-21T01:13:47.730Z,12.23
2023-04-21T01:16:17.830Z,12.83
2023-04-21T01:18:46.042Z,12.57
2023-04-21T01:21:14.237Z,12.90
2023-04-21T01:23:43.808Z,12.70
2023-04-21T01:26:11.675Z,12.27
2023-04-21T01:28:39.458Z,12.27
2023-04-21T01:31:07.421Z,13.40
2023-04-21T01:33:35.314Z,11.90
2023-04-21T01:36:03.107Z,12.33
2023-04-21T01:38:30.894Z,11.60
2023-04-21T01:41:00.039Z,11.33
2023-04-21T01:43:27.789Z,12.83
2023-04-21T01:45:55.606Z,11.70
2023-04-21T01:48:23.420Z,12.20
2023-04-21T01:50:51.195Z,12.23
2023-04-21T01:53:18.953Z,12.30
2023-04-21T01:55:46.738Z,13.70
2023-04-21T01:58:15.877Z,13.00
2023-04-21T02:00:43.642Z,12.00
2023-04-21T02:03:11.587Z,12.17
2023-04-21T02:05:39.438Z,11.37
2023-04-21T02:08:07.412Z,11.00
2023-04-21T02:10:35.182Z,10.17
2023-04-21T02:13:03.141Z,10.43
2023-04-21T02:15:32.399Z,12.57
2023-04-21T02:18:00.308Z,9.80
2023-04-21T02:20:28.198Z,10.40
2023-04-21T02:22:55.961Z,10.07
2023-04-21T02:25:23.941Z,10.83
2023-04-21T02:27:51.751Z,10.03
2023-04-21T02:30:20.429Z,11.63
2023-04-21T02:32:49.653Z,11.27
2023-04-21T02:35:17.542Z,10.40
2023-04-21T02:37:45.310Z,10.50
2023-04-21T02:40:13.773Z,11.23
2023-04-21T02:42:41.537Z,9.90
2023-04-21T02:45:11.102Z,10.17
2023-04-21T02:47:38.909Z,10.30
2023-04-21T02:50:08.777Z,9.63
2023-04-21T02:52:37.963Z,9.40
2023-04-21T02:55:07.665Z,10.07
2023-04-21T02:57:35.463Z,10.97
2023-04-21T03:00:04.179Z,11.57
2023-04-21T03:02:32.055Z,10.40
2023-04-21T03:04:59.923Z,11.07
2023-04-21T03:07:29.269Z,9.93
2023-04-21T03:09:57.035Z,10.13
2023-04-21T03:12:24.781Z,10.20
2023-04-21T03:14:52.529Z,10.97
2023-04-21T03:17:20.413Z,11.97
2023-04-21T03:19:48.183Z,11.07
2023-04-21T03:22:15.936Z,10.20
2023-04-21T03:24:45.063Z,10.90
2023-04-21T03:27:12.853Z,10.53
2023-04-21T03:29:40.625Z,11.27
2023-04-21T03:32:08.375Z,10.73
2023-04-21T03:34:36.238Z,12.07
2023-04-21T03:37:04.008Z,11.03
2023-04-21T03:39:31.808Z,11.50
2023-04-21T03:42:01.287Z,11.43
2023-04-21T03:44:29.634Z,11.43
2023-04-21T03:46:57.563Z,11.57
2023-04-21T03:49:25.557Z,12.03
2023-04-21T03:51:53.321Z,11.30
2023-04-21T03:54:21.375Z,11.90
2023-04-21T03:56:49.100Z,11.37
2023-04-21T03:59:18.478Z,11.40
2023-04-21T04:01:46.445Z,10.90
2023-04-21T04:04:14.527Z,11.03
2023-04-21T04:06:42.448Z,12.30
2023-04-21T04:09:10.267Z,12.47
2023-04-21T04:11:38.016Z,12.57
2023-04-21T04:14:05.787Z,12.43
2023-04-21T04:16:36.798Z,12.23
2023-04-21T04:19:04.893Z,10.63
2023-04-21T04:21:33.265Z,11.63
2023-04-21T04:24:02.264Z,12.27
2023-04-21T04:26:30.197Z,11.83
2023-04-21T04:28:57.972Z,10.67
2023-04-21T04:31:26.184Z,11.57
2023-04-21T04:33:55.766Z,11.17
2023-04-21T04:36:23.749Z,12.60
2023-04-21T04:38:51.562Z,11.70
2023-04-21T04:41:20.810Z,11.63
2023-04-21T04:43:48.614Z,11.47
2023-04-21T04:46:17.205Z,11.77
2023-04-21T04:48:45.104Z,12.30
2023-04-21T04:51:14.186Z,11.83
2023-04-21T04:53:41.917Z,10.77
2023-04-21T04:56:09.674Z,11.23
2023-04-21T04:58:37.415Z,10.40
2023-04-21T05:01:13.594Z,10.80
2023-04-21T05:03:41.457Z,10.83
2023-04-21T05:06:09.764Z,11.30
2023-04-21T05:08:40.094Z,12.13
2023-04-21T05:11:08.394Z,12.23
2023-04-21T05:13:38.390Z,13.17
2023-04-21T05:16:10.009Z,13.83
2023-04-21T05:18:37.985Z,13.90
2023-04-21T05:21:06.026Z,13.83
2023-04-21T05:23:34.012Z,14.57
2023-04-21T05:26:04.665Z,13.90
2023-04-21T05:28:33.003Z,15.20
2023-04-21T05:31:00.778Z,14.07
2023-04-21T05:33:31.544Z,13.63
2023-04-21T05:35:59.315Z,13.50
2023-04-21T05:38:27.237Z,13.37
2023-04-21T05:40:55.861Z,13.37
2023-04-21T05:43:24.998Z,13.10
2023-04-21T05:45:52.986Z,12.63
2023-04-21T05:48:20.906Z,12.10
2023-04-21T05:50:48.709Z,11.00
2023-04-21T05:53:16.468Z,12.37
2023-04-21T05:55:44.215Z,13.00
2023-04-21T05:58:11.994Z,11.97
2023-04-21T06:00:41.084Z,12.03
2023-04-21T06:03:09.047Z,12.60
2023-04-21T06:05:37.020Z,12.27
2023-04-21T06:08:04.932Z,13.33
2023-04-21T06:10:32.758Z,11.80
2023-04-21T06:13:00.478Z,12.33
2023-04-21T06:15:28.209Z,12.33
2023-04-21T06:17:57.455Z,12.20
2023-04-21T06:20:25.335Z,11.10
2023-04-21T06:22:53.110Z,11.47
2023-04-21T06:25:21.143Z,11.37
2023-04-21T06:27:48.903Z,11.03
2023-04-21T06:30:17.540Z,10.57
2023-04-21T06:32:45.990Z,11.13
2023-04-21T06:35:17.200Z,11.13
2023-04-21T06:37:44.978Z,10.27
2023-04-21T06:40:15.857Z,10.33
2023-04-21T06:42:43.721Z,9.60
2023-04-21T06:45:12.266Z,10.47
2023-04-21T06:47:40.133Z,9.13
2023-04-21T06:50:09.016Z,11.53
2023-04-21T06:52:38.087Z,10.53
2023-04-21T06:55:07.010Z,9.80
2023-04-21T06:57:34.816Z,10.03
2023-04-21T07:00:02.692Z,10.40
2023-04-21T07:02:30.495Z,9.27
2023-04-21T07:04:58.283Z,10.13
2023-04-21T07:07:26.060Z,9.53
2023-04-21T07:09:55.341Z,9.10
2023-04-21T07:12:23.138Z,9.30
2023-04-21T07:14:50.902Z,10.33
2023-04-21T07:17:18.684Z,8.90
2023-04-21T07:19:46.774Z,9.00
2023-04-21T07:22:14.562Z,10.10
2023-04-21T07:24:42.307Z,8.53
2023-04-21T07:27:11.407Z,9.47
2023-04-21T07:29:39.170Z,8.27
2023-04-21T07:32:07.028Z,9.13
2023-04-21T07:34:34.805Z,8.90
2023-04-21T07:37:02.596Z,8.90
2023-04-21T07:39:30.378Z,8.57
2023-04-21T07:41:58.091Z,9.00
2023-04-21T07:44:29.198Z,8.10
2023-04-21T07:46:56.989Z,8.40
2023-04-21T07:49:24.701Z,7.67
2023-04-21T07:51:52.479Z,8.27
2023-04-21T07:54:20.219Z,7.33
2023-04-21T07:56:47.974Z,7.57
2023-04-21T07:59:15.775Z,8.10
2023-04-21T08:01:44.824Z,8.47
2023-04-21T08:04:12.671Z,7.97
2023-04-21T08:06:40.500Z,7.03
2023-04-21T08:09:08.590Z,7.40
2023-04-21T08:11:36.370Z,7.13
2023-04-21T08:14:04.523Z,6.80
2023-04-21T08:16:32.361Z,7.43
2023-04-21T08:19:01.552Z,7.27
2023-04-21T08:21:31.305Z,6.40
2023-04-21T08:23:59.297Z,6.33
2023-04-21T08:26:27.781Z,6.50
2023-04-21T08:28:55.530Z,6.43
2023-04-21T08:31:26.996Z,6.30
2023-04-21T08:34:01.746Z,6.43
2023-04-21T08:36:32.560Z,6.67
2023-04-21T08:39:00.504Z,6.30
2023-04-21T08:41:28.738Z,5.93
2023-04-21T08:43:56.541Z,5.87
2023-04-21T08:46:24.834Z,6.00
2023-04-21T08:48:54.960Z,6.77
2023-04-21T08:51:24.667Z,5.50
2023-04-21T08:53:55.796Z,6.30
2023-04-21T08:56:25.884Z,6.47
2023-04-21T08:58:53.773Z,6.07
2023-04-21T09:01:21.655Z,6.20
2023-04-21T09:03:49.633Z,5.77
2023-04-21T09:06:18.057Z,6.30
2023-04-21T09:08:56.466Z,5.90
2023-04-21T09:11:25.053Z,5.37
2023-04-21T09:13:52.821Z,6.17
2023-04-21T09:16:22.748Z,5.70
2023-04-21T09:18:51.377Z,6.30
2023-04-21T09:21:20.600Z,5.60
2023-04-21T09:23:49.587Z,5.90
2023-04-21T09:26:20.139Z,5.77
2023-04-21T09:28:49.469Z,5.67
2023-04-21T09:31:19.719Z,5.67
2023-04-21T09:36:24.332Z,5.20
2023-04-21T09:39:20.540Z,5.27
2023-04-21T09:41:47.114Z,5.10
2023-04-21T09:44:14.962Z,4.80
2023-04-21T09:46:45.304Z,4.87
2023-04-21T09:49:17.231Z,5.33
2023-04-21T09:52:09.681Z,5.23
2023-04-21T09:54:34.926Z,5.17
2023-04-21T09:57:05.799Z,4.70
2023-04-21T09:59:37.134Z,4.90
2023-04-21T10:02:07.713Z,4.43
2023-04-21T10:04:38.176Z,5.13
2023-04-21T10:07:07.428Z,5.57
2023-04-21T10:09:41.155Z,4.77
2023-04-21T10:12:11.246Z,4.87
2023-04-21T10:14:39.032Z,4.60
2023-04-21T10:17:08.607Z,4.63
2023-04-21T10:19:39.811Z,4.87
2023-04-21T10:22:09.389Z,4.23
2023-04-21T10:24:39.741Z,4.20
2023-04-21T10:27:12.648Z,3.70
2023-04-21T10:29:55.505Z,4.40
2023-04-21T10:32:42.160Z,4.27
2023-04-21T10:35:11.582Z,3.83
2023-04-21T10:37:41.125Z,4.13
2023-04-21T10:43:45.327Z,3.50
2023-04-21T10:46:36.489Z,3.13
2023-04-21T10:49:08.990Z,3.27
2023-04-21T10:52:04.966Z,3.17
2023-04-21T10:54:41.819Z,3.60
2023-04-21T10:57:11.988Z,3.50
2023-04-21T10:59:41.708Z,3.47
2023-04-21T11:02:12.464Z,3.27
2023-04-21T11:04:45.095Z,3.30
2023-04-21T11:07:14.933Z,3.30
2023-04-21T11:09:43.858Z,3.43
2023-04-21T11:12:12.901Z,3.33
2023-04-21T11:14:43.905Z,3.77
2023-04-21T11:17:14.133Z,3.20
2023-04-21T11:19:42.441Z,3.13
2023-04-21T11:22:10.229Z,3.10
2023-04-21T11:24:37.999Z,3.40
2023-04-21T11:27:09.784Z,3.17
2023-04-21T11:29:37.543Z,3.00
2023-04-21T11:32:09.183Z,2.93
2023-04-21T11:34:38.914Z,3.30
2023-04-21T11:37:08.290Z,2.87
2023-04-21T11:39:36.055Z,2.90
2023-04-21T11:42:04.241Z,3.40
2023-04-21T11:44:33.961Z,2.47
2023-04-21T11:47:01.943Z,2.60
2023-04-21T11:49:32.218Z,2.40
2023-04-21T11:52:00.164Z,2.30
2023-04-21T11:54:30.675Z,2.50
2023-04-21T11:57:00.115Z,2.37
2023-04-21T11:59:29.834Z,2.33
2023-04-21T12:01:57.647Z,2.30
2023-04-21T12:04:27.240Z,2.70
2023-04-21T12:06:59.355Z,2.40
2023-04-21T12:09:27.961Z,2.20
2023-04-21T12:11:58.538Z,2.47
2023-04-21T12:14:27.393Z,2.43
2023-04-21T12:16:56.390Z,2.60
2023-04-21T12:19:26.299Z,2.70
2023-04-21T12:21:55.472Z,2.83
2023-04-21T12:24:24.716Z,2.70
2023-04-21T12:26:52.487Z,2.70
2023-04-21T12:29:20.229Z,3.07
2023-04-21T12:31:48.004Z,3.23
2023-04-21T12:34:16.025Z,2.87
2023-04-21T12:36:44.126Z,3.23
2023-04-21T12:39:13.279Z,2.73
2023-04-21T12:41:42.413Z,2.87
2023-04-21T12:44:10.149Z,2.93
2023-04-21T12:46:37.921Z,2.93
2023-04-21T12:49:07.390Z,2.60
2023-04-21T12:51:35.362Z,2.90
2023-04-21T12:54:03.335Z,2.80
2023-04-21T12:56:31.336Z,2.97
2023-04-21T12:59:00.461Z,2.93
2023-04-21T13:01:28.306Z,2.50
2023-04-21T13:03:56.546Z,2.50
2023-04-21T13:06:24.466Z,2.80
2023-04-21T13:08:52.201Z,2.70
2023-04-21T13:11:20.002Z,2.43
2023-04-21T13:13:47.758Z,3.07
2023-04-21T13:16:17.118Z,2.83
2023-04-21T13:18:46.790Z,2.50
2023-04-21T13:21:14.774Z,2.47
2023-04-21T13:23:42.517Z,2.50
2023-04-21T13:26:10.335Z,2.80
2023-04-21T13:28:38.781Z,2.87
2023-04-21T13:31:06.963Z,3.30
2023-04-21T13:33:36.359Z,3.00
2023-04-21T13:36:04.641Z,3.10
2023-04-21T13:38:33.223Z,2.93
2023-04-21T13:41:01.025Z,2.97
2023-04-21T13:43:28.788Z,3.07
2023-04-21T13:45:56.569Z,3.17
2023-04-21T13:48:24.508Z,3.00
2023-04-21T13:50:53.806Z,2.70
2023-04-21T13:53:21.756Z,2.53
2023-04-21T13:55:49.606Z,2.50
2023-04-21T13:58:17.784Z,2.40
2023-04-21T14:00:45.571Z,2.30
2023-04-21T14:03:14.014Z,2.37
2023-04-21T14:05:42.268Z,2.20
2023-04-21T14:08:11.829Z,2.03
2023-04-21T14:10:39.625Z,2.17
2023-04-21T14:13:07.426Z,2.33
2023-04-21T14:15:35.210Z,2.10
2023-04-21T14:18:03.058Z,2.07
2023-04-21T14:20:30.910Z,2.47
2023-04-21T14:22:58.702Z,2.67
2023-04-21T14:25:27.995Z,2.23
2023-04-21T14:27:55.872Z,2.60
2023-04-21T14:30:23.694Z,2.43
2023-04-21T14:32:51.464Z,2.60
2023-04-21T14:35:19.260Z,2.60
2023-04-21T14:37:47.066Z,2.63
2023-04-21T14:40:15.017Z,2.53
2023-04-21T14:42:44.136Z,2.73
2023-04-21T14:45:12.639Z,2.93
2023-04-21T14:47:40.484Z,2.63
2023-04-21T14:50:09.402Z,3.10
2023-04-21T14:52:37.245Z,2.77
2023-04-21T14:55:05.506Z,2.70
2023-04-21T14:57:33.253Z,2.90
2023-04-21T15:00:02.424Z,2.90
2023-04-21T15:02:31.293Z,2.47
2023-04-21T15:04:59.154Z,2.63
2023-04-21T15:07:27.080Z,2.67
2023-04-21T15:09:55.304Z,2.77
2023-04-21T15:12:23.251Z,2.70
2023-04-21T15:14:51.256Z,2.97
2023-04-21T15:17:20.560Z,2.87
2023-04-21T15:19:48.424Z,2.93
2023-04-21T15:22:16.268Z,3.00
2023-04-21T15:24:44.163Z,3.17
2023-04-21T15:27:11.957Z,3.10
2023-04-21T15:29:39.756Z,3.30
2023-04-21T15:32:07.762Z,3.07
2023-04-21T15:34:37.145Z,3.40
2023-04-21T15:37:04.996Z,2.97
2023-04-21T15:39:32.765Z,2.93
2023-04-21T15:42:01.474Z,3.57
2023-04-21T15:44:29.284Z,3.10
2023-04-21T15:46:57.113Z,2.90
2023-04-21T15:49:33.580Z,3.07
2023-04-21T15:52:03.775Z,2.80
2023-04-21T15:54:33.958Z,2.80
2023-04-21T15:57:02.368Z,2.67
2023-04-21T15:59:30.816Z,3.20
2023-04-21T16:01:58.968Z,2.60
2023-04-21T16:04:27.038Z,3.40
2023-04-21T16:06:55.612Z,3.07
2023-04-21T16:09:24.698Z,2.77
2023-04-21T16:11:52.710Z,3.13
2023-04-21T16:14:20.620Z,2.70
2023-04-21T16:16:48.455Z,3.03
2023-04-21T16:19:16.479Z,2.80
2023-04-21T16:21:44.504Z,3.30
2023-04-21T16:24:12.449Z,3.00
2023-04-21T16:26:41.676Z,2.60
2023-04-21T16:29:09.560Z,3.20
2023-04-21T16:31:37.446Z,2.70
2023-04-21T16:34:05.636Z,2.47
2023-04-21T16:36:34.162Z,2.70
2023-04-21T16:39:01.967Z,2.73
2023-04-21T16:41:30.279Z,2.63
2023-04-21T16:43:59.453Z,2.67
2023-04-21T16:46:27.278Z,2.70
2023-04-21T16:48:55.259Z,2.97
2023-04-21T16:51:23.072Z,2.20
2023-04-21T16:53:50.812Z,2.47
2023-04-21T16:56:20.181Z,2.33
2023-04-21T16:58:47.985Z,2.43
2023-04-21T17:01:17.154Z,2.70
2023-04-21T17:03:45.796Z,2.87
2023-04-21T17:06:17.204Z,2.20
2023-04-21T17:08:44.990Z,3.13
2023-04-21T17:11:12.747Z,2.80
2023-04-21T17:13:40.471Z,2.60
2023-04-21T17:16:08.428Z,2.63
2023-04-21T17:18:37.931Z,2.47
2023-04-21T17:21:06.687Z,2.80
2023-04-21T17:23:34.436Z,2.20
2023-04-21T17:26:03.548Z,2.50
2023-04-21T17:28:31.992Z,2.50
2023-04-21T17:31:13.887Z,2.43
2023-04-21T17:33:45.062Z,2.20
2023-04-21T17:38:58.178Z,2.30
2023-04-21T17:41:26.625Z,2.40
2023-04-21T17:43:54.738Z,2.50
2023-04-21T17:46:24.876Z,2.30
2023-04-21T17:48:53.246Z,2.37
2023-04-21T17:51:21.084Z,2.50
2023-04-21T17:53:48.819Z,2.60
2023-04-21T17:56:18.768Z,2.13
2023-04-21T17:58:46.777Z,2.23
2023-04-21T18:01:14.592Z,2.53
2023-04-21T18:03:42.831Z,2.70
2023-04-21T18:06:11.609Z,2.50
2023-04-21T18:08:39.590Z,2.47
2023-04-21T18:11:07.407Z,2.70
2023-04-21T18:13:36.532Z,2.60
2023-04-21T18:16:04.271Z,2.60
2023-04-21T18:18:32.066Z,2.60
2023-04-21T18:21:00.106Z,2.50
2023-04-21T18:23:27.934Z,3.10
2023-04-21T18:25:55.953Z,2.20
2023-04-21T18:28:23.738Z,2.67
2023-04-21T18:30:53.474Z,3.10
2023-04-21T18:33:21.324Z,2.73
2023-04-21T18:35:49.156Z,3.27
2023-04-21T18:38:16.916Z,3.30
2023-04-21T18:40:44.767Z,3.27
2023-04-21T18:43:12.593Z,2.57
2023-04-21T18:45:40.431Z,2.87
2023-04-21T18:48:09.557Z,3.13
2023-04-21T18:50:39.521Z,3.07
2023-04-21T18:53:08.187Z,3.20
2023-04-21T18:55:37.236Z,3.53
2023-04-21T18:58:05.139Z,3.37
2023-04-21T19:00:37.010Z,3.93
2023-04-21T19:03:05.885Z,3.70
2023-04-21T19:05:36.552Z,3.33
2023-04-21T19:08:04.347Z,3.30
2023-04-21T19:10:34.265Z,3.23
2023-04-21T19:13:02.151Z,3.33
2023-04-21T19:15:30.018Z,3.60
2023-04-21T19:17:57.941Z,3.43
2023-04-21T19:20:25.764Z,3.13
2023-04-21T19:22:54.850Z,3.47
2023-04-21T19:25:22.634Z,3.30
2023-04-21T19:27:51.386Z,3.17
2023-04-21T19:30:19.243Z,3.47
2023-04-21T19:32:47.028Z,3.70
2023-04-21T19:35:14.929Z,3.30
2023-04-21T19:37:42.811Z,3.43
2023-04-21T19:40:12.635Z,3.30
2023-04-21T19:42:41.958Z,3.03
2023-04-21T19:45:10.925Z,3.03
2023-04-21T19:47:38.722Z,3.20
2023-04-21T19:50:08.117Z,3.67
2023-04-21T19:52:35.933Z,3.50
2023-04-21T19:55:04.473Z,3.47
2023-04-21T19:57:33.580Z,3.60
2023-04-21T20:00:01.343Z,3.27
2023-04-21T20:02:29.360Z,3.80
2023-04-21T20:04:57.267Z,3.30
2023-04-21T20:07:25.329Z,3.40
2023-04-21T20:09:53.124Z,3.53
2023-04-21T20:12:20.979Z,3.40
2023-04-21T20:14:51.733Z,3.17
2023-04-21T20:17:19.649Z,3.70
2023-04-21T20:19:48.868Z,3.50
2023-04-21T20:22:16.627Z,3.17
2023-04-21T20:24:44.377Z,3.67
2023-04-21T20:27:12.110Z,3.17
2023-04-21T20:29:40.160Z,3.20
2023-04-21T20:32:10.295Z,3.33
2023-04-21T20:34:38.056Z,2.93
2023-04-21T20:37:06.163Z,2.97
2023-04-21T20:39:34.117Z,3.10
2023-04-21T20:42:12.709Z,3.63
2023-04-21T20:44:42.233Z,3.57
2023-04-21T20:47:12.156Z,3.30
2023-04-21T20:49:40.611Z,3.07
2023-04-21T20:52:08.610Z,3.77
2023-04-21T20:54:36.616Z,3.60
2023-04-21T20:57:07.169Z,3.23
2023-04-21T20:59:35.198Z,3.67
2023-04-21T21:02:03.175Z,3.37
2023-04-21T21:04:32.637Z,2.90
2023-04-21T21:07:01.120Z,3.17
2023-04-21T21:09:28.997Z,3.27
2023-04-21T21:11:56.749Z,3.67
2023-04-21T21:14:24.501Z,3.10
2023-04-21T21:16:54.289Z,3.47
2023-04-21T21:19:23.360Z,3.30
2023-04-21T21:21:52.429Z,3.70
2023-04-21T21:24:20.175Z,3.17
2023-04-21T21:26:47.926Z,3.23
2023-04-21T21:29:15.705Z,3.43
2023-04-21T21:31:43.527Z,3.40
2023-04-21T21:34:11.313Z,3.50
2023-04-21T21:36:39.130Z,3.23
2023-04-21T21:39:10.993Z,3.30
2023-04-21T21:41:39.588Z,3.60
2023-04-21T21:44:07.624Z,3.43
2023-04-21T21:46:35.568Z,3.90
2023-04-21T21:49:03.647Z,3.10
2023-04-21T21:51:31.424Z,3.90
2023-04-21T21:53:59.215Z,3.73
2023-04-21T21:56:28.428Z,3.27
2023-04-21T21:58:56.254Z,3.67
2023-04-21T22:01:24.342Z,3.83
2023-04-21T22:03:53.718Z,3.40
2023-04-21T22:06:24.223Z,3.00
2023-04-21T22:08:52.196Z,3.33
2023-04-21T22:11:20.564Z,3.70
2023-04-21T22:13:49.726Z,3.80
2023-04-21T22:16:18.380Z,3.77
2023-04-21T22:18:48.097Z,3.43
2023-04-21T22:21:15.961Z,3.50
2023-04-21T22:23:43.784Z,3.67
2023-04-21T22:26:11.532Z,3.70
2023-04-21T22:28:41.534Z,3.70
2023-04-21T22:31:11.420Z,3.40
2023-04-21T22:33:39.231Z,3.87
2023-04-21T22:36:09.725Z,3.63
2023-04-21T22:38:38.218Z,3.70
2023-04-21T22:41:06.383Z,4.07
2023-04-21T22:43:34.177Z,3.93
2023-04-21T22:46:02.349Z,4.00
2023-04-21T22:48:32.595Z,4.07
2023-04-21T22:51:01.439Z,3.87
2023-04-21T22:53:29.356Z,3.53
2023-04-21T22:55:57.215Z,3.70
2023-04-21T22:58:26.083Z,4.20
2023-04-21T23:00:53.985Z,3.60
2023-04-21T23:03:22.999Z,3.60
2023-04-21T23:05:52.485Z,3.57
2023-04-21T23:08:20.262Z,3.23
2023-04-21T23:10:48.675Z,3.80
2023-04-21T23:13:16.473Z,3.60
2023-04-21T23:15:44.237Z,3.53
2023-04-21T23:18:12.004Z,3.83
2023-04-21T23:20:39.753Z,3.43
2023-04-21T23:23:08.913Z,3.37
2023-04-21T23:25:36.959Z,3.70
2023-04-21T23:28:04.733Z,3.80
2023-04-21T23:30:32.491Z,3.67
2023-04-21T23:33:00.720Z,2.93
2023-04-21T23:35:28.763Z,3.83
2023-04-21T23:37:56.562Z,3.73
2023-04-21T23:40:25.733Z,3.53
2023-04-21T23:42:53.493Z,3.90
2023-04-21T23:45:21.389Z,3.37
2023-04-21T23:47:49.227Z,3.73
2023-04-21T23:50:17.072Z,3.57
2023-04-21T23:52:44.947Z,3.40
2023-04-21T23:55:12.894Z,3.43
2023-04-21T23:57:44.438Z,3.60
